createdAt,value
2019-06-26T00:02:05.299Z,46.92
2019-06-26T00:04:34.088Z,46.94
2019-06-26T00:07:03.020Z,46.97
2019-06-26T00:09:32.012Z,47.00
2019-06-26T00:12:00.938Z,47.03
2019-06-26T00:14:29.733Z,47.07
2019-06-26T00:16:58.626Z,47.11
2019-06-26T00:19:27.665Z,47.13
2019-06-26T00:21:56.483Z,47.17
2019-06-26T00:24:25.463Z,47.19
2019-06-26T00:26:54.272Z,47.22
2019-06-26T00:29:23.116Z,47.27
2019-06-26T00:31:51.989Z,47.33
2019-06-26T00:34:20.831Z,47.36
2019-06-26T00:36:49.631Z,47.41
2019-06-26T00:39:18.437Z,47.42
2019-06-26T00:41:47.409Z,47.46
2019-06-26T00:44:16.250Z,47.50
2019-06-26T00:46:45.227Z,47.53
2019-06-26T00:49:14.094Z,47.55
2019-06-26T00:51:42.880Z,47.56
2019-06-26T00:54:11.695Z,47.59
2019-06-26T00:56:40.562Z,47.59
2019-06-26T00:59:09.499Z,47.63
2019-06-26T01:01:38.455Z,47.70
2019-06-26T01:04:11.937Z,47.72
2019-06-26T01:06:43.674Z,47.73
2019-06-26T01:09:13.491Z,47.76
2019-06-26T01:11:42.420Z,47.81
2019-06-26T01:14:11.381Z,47.84
2019-06-26T01:16:40.290Z,47.86
2019-06-26T01:19:09.076Z,47.92
2019-06-26T01:21:37.866Z,47.95
2019-06-26T01:24:06.740Z,47.96
2019-06-26T01:26:35.742Z,47.98
2019-06-26T01:29:04.607Z,48.01
2019-06-26T01:31:33.481Z,48.08
2019-06-26T01:34:02.411Z,48.07
2019-06-26T01:36:31.209Z,48.09
2019-06-26T01:39:00.065Z,48.12
2019-06-26T01:41:28.985Z,48.14
2019-06-26T01:44:10.582Z,48.17
2019-06-26T01:46:28.299Z,48.20
2019-06-26T01:48:57.117Z,48.24
2019-06-26T01:51:26.324Z,48.27
2019-06-26T01:53:55.254Z,48.35
2019-06-26T01:56:24.066Z,48.38
2019-06-26T01:58:52.923Z,48.42
2019-06-26T02:01:22.275Z,48.44
2019-06-26T02:03:51.057Z,48.45
2019-06-26T02:06:19.935Z,48.47
2019-06-26T02:08:48.858Z,48.51
2019-06-26T02:11:17.670Z,48.52
2019-06-26T02:13:46.537Z,48.57
2019-06-26T02:16:15.453Z,48.62
2019-06-26T02:18:48.553Z,48.67
2019-06-26T02:21:17.429Z,48.65
2019-06-26T02:23:46.392Z,48.68
2019-06-26T02:26:15.238Z,48.67
2019-06-26T02:28:44.114Z,48.72
2019-06-26T02:31:13.021Z,48.68
2019-06-26T02:33:41.927Z,48.74
2019-06-26T02:36:11.138Z,48.76
2019-06-26T02:38:39.991Z,48.73
2019-06-26T02:41:08.942Z,48.75
2019-06-26T02:43:37.738Z,48.87
2019-06-26T02:46:06.509Z,48.87
2019-06-26T02:48:35.314Z,48.92
2019-06-26T02:51:04.172Z,48.92
2019-06-26T02:53:32.990Z,48.94
2019-06-26T02:56:01.754Z,48.99
2019-06-26T02:58:30.652Z,49.00
2019-06-26T03:00:59.500Z,49.02
2019-06-26T03:03:28.519Z,49.02
2019-06-26T03:05:57.426Z,49.09
2019-06-26T03:08:26.218Z,49.08
2019-06-26T03:10:54.998Z,49.07
2019-06-26T03:13:24.100Z,49.13
2019-06-26T03:15:53.212Z,49.17
2019-06-26T03:18:22.049Z,49.16
2019-06-26T03:20:54.492Z,49.22
2019-06-26T03:23:23.458Z,49.30
2019-06-26T03:25:52.374Z,49.34
2019-06-26T03:28:21.340Z,49.16
2019-06-26T03:30:50.213Z,49.34
2019-06-26T03:33:19.199Z,49.40
2019-06-26T03:35:47.963Z,49.41
2019-06-26T03:38:16.856Z,49.50
2019-06-26T03:40:45.630Z,49.52
2019-06-26T03:43:14.574Z,49.56
2019-06-26T03:45:43.433Z,49.54
2019-06-26T03:48:12.294Z,49.53
2019-06-26T03:50:41.145Z,49.52
2019-06-26T03:53:09.936Z,49.53
2019-06-26T03:55:38.718Z,49.56
2019-06-26T03:58:07.513Z,49.56
2019-06-26T04:00:40.902Z,49.56
2019-06-26T04:03:10.183Z,49.56
2019-06-26T04:05:39.036Z,49.63
2019-06-26T04:08:07.827Z,49.66
2019-06-26T04:10:36.618Z,49.65
2019-06-26T04:13:05.665Z,49.68
2019-06-26T04:15:42.070Z,49.77
2019-06-26T04:18:05.319Z,49.75
2019-06-26T04:20:34.081Z,49.81
2019-06-26T04:23:03.061Z,49.81
2019-06-26T04:25:31.835Z,49.84
2019-06-26T04:28:00.637Z,49.88
2019-06-26T04:30:29.429Z,49.88
2019-06-26T04:32:58.477Z,49.98
2019-06-26T04:35:27.447Z,49.93
2019-06-26T04:37:56.256Z,50.00
2019-06-26T04:40:25.104Z,49.96
2019-06-26T04:42:53.903Z,50.00
2019-06-26T04:45:22.698Z,50.02
2019-06-26T04:47:51.508Z,50.02
2019-06-26T04:50:20.287Z,50.07
2019-06-26T04:52:49.157Z,50.08
2019-06-26T04:55:18.571Z,50.07
2019-06-26T04:57:47.506Z,50.07
2019-06-26T05:00:16.423Z,50.07
2019-06-26T05:02:45.429Z,50.01
2019-06-26T05:05:14.221Z,50.09
2019-06-26T05:07:43.028Z,50.21
2019-06-26T05:10:12.873Z,50.20
2019-06-26T05:12:41.755Z,50.20
2019-06-26T05:15:10.619Z,50.37
2019-06-26T05:17:39.478Z,50.59
2019-06-26T05:20:08.284Z,50.70
2019-06-26T05:22:37.137Z,50.68
2019-06-26T05:25:06.687Z,50.71
2019-06-26T05:27:35.458Z,50.65
2019-06-26T05:30:05.295Z,50.58
2019-06-26T05:32:34.222Z,50.52
2019-06-26T05:35:03.189Z,50.80
2019-06-26T05:37:32.040Z,51.35
2019-06-26T05:40:00.844Z,51.80
2019-06-26T05:42:29.619Z,52.13
2019-06-26T05:44:58.432Z,52.49
2019-06-26T05:47:27.196Z,52.67
2019-06-26T05:49:56.023Z,53.09
2019-06-26T05:52:24.905Z,53.03
2019-06-26T05:54:53.857Z,52.58
2019-06-26T05:57:22.911Z,52.38
2019-06-26T05:59:51.881Z,52.25
2019-06-26T06:02:20.632Z,52.25
2019-06-26T06:04:49.437Z,52.41
2019-06-26T06:07:18.211Z,52.23
2019-06-26T06:09:47.087Z,51.50
2019-06-26T06:12:15.863Z,51.38
2019-06-26T06:14:44.675Z,51.33
2019-06-26T06:17:13.537Z,51.49
2019-06-26T06:19:42.410Z,51.46
2019-06-26T06:22:11.267Z,51.65
2019-06-26T06:24:42.091Z,51.12
2019-06-26T06:27:10.863Z,50.30
2019-06-26T06:29:39.729Z,49.27
2019-06-26T06:32:08.494Z,49.47
2019-06-26T06:34:37.290Z,49.61
2019-06-26T06:37:06.073Z,49.38
2019-06-26T06:39:34.861Z,49.37
2019-06-26T06:42:03.635Z,49.46
2019-06-26T06:44:32.486Z,49.43
2019-06-26T06:47:04.413Z,49.38
2019-06-26T06:49:31.804Z,49.45
2019-06-26T06:52:00.586Z,49.51
2019-06-26T06:54:29.529Z,49.77
2019-06-26T06:56:58.298Z,49.82
2019-06-26T06:59:27.159Z,50.16
2019-06-26T07:01:56.026Z,50.71
2019-06-26T07:04:25.159Z,50.31
2019-06-26T07:06:53.983Z,50.57
2019-06-26T07:09:22.789Z,50.73
2019-06-26T07:11:51.571Z,50.59
2019-06-26T07:14:20.369Z,50.70
2019-06-26T07:16:49.168Z,50.72
2019-06-26T07:19:18.083Z,50.58
2019-06-26T07:21:46.868Z,50.32
2019-06-26T07:24:15.751Z,50.67
2019-06-26T07:26:44.671Z,50.85
2019-06-26T07:29:13.571Z,50.94
2019-06-26T07:31:42.417Z,50.64
2019-06-26T07:34:11.227Z,50.10
2019-06-26T07:36:40.040Z,49.94
2019-06-26T07:39:08.851Z,49.77
2019-06-26T07:41:37.643Z,49.68
2019-06-26T07:44:06.443Z,49.40
2019-06-26T07:46:35.330Z,49.78
2019-06-26T07:49:04.212Z,49.99
2019-06-26T07:51:33.071Z,49.77
2019-06-26T07:54:01.952Z,49.88
2019-06-26T07:56:30.885Z,49.45
2019-06-26T07:58:59.831Z,49.38
2019-06-26T08:01:28.688Z,48.77
2019-06-26T08:03:57.495Z,49.15
2019-06-26T08:06:26.349Z,49.01
2019-06-26T08:08:55.422Z,49.12
2019-06-26T08:11:24.288Z,49.46
2019-06-26T08:13:53.052Z,49.57
2019-06-26T08:16:21.957Z,49.98
2019-06-26T08:18:50.734Z,50.17
2019-06-26T08:21:19.603Z,49.96
2019-06-26T08:23:48.373Z,50.01
2019-06-26T08:26:17.166Z,50.04
2019-06-26T08:28:46.028Z,50.27
2019-06-26T08:31:14.915Z,50.47
2019-06-26T08:33:43.871Z,50.52
2019-06-26T08:36:12.688Z,50.35
2019-06-26T08:38:41.469Z,50.47
2019-06-26T08:41:10.701Z,50.55
2019-06-26T08:43:39.548Z,50.37
2019-06-26T08:46:08.354Z,50.82
2019-06-26T08:48:40.072Z,50.69
2019-06-26T08:51:07.809Z,50.16
2019-06-26T08:53:36.679Z,49.79
2019-06-26T08:56:05.553Z,50.31
2019-06-26T08:58:34.403Z,50.55
2019-06-26T09:01:03.266Z,50.93
2019-06-26T09:03:32.111Z,50.83
2019-06-26T09:06:00.912Z,50.38
2019-06-26T09:08:29.910Z,50.08
2019-06-26T09:10:58.819Z,50.83
2019-06-26T09:13:27.663Z,50.31
2019-06-26T09:15:56.477Z,50.37
2019-06-26T09:18:35.311Z,51.39
2019-06-26T09:20:55.859Z,51.13
2019-06-26T09:23:24.646Z,51.37
2019-06-26T09:25:53.549Z,51.16
2019-06-26T09:28:22.382Z,50.74
2019-06-26T09:30:51.262Z,50.33
2019-06-26T09:33:20.207Z,50.33
2019-06-26T09:35:49.107Z,50.10
2019-06-26T09:38:17.928Z,50.54
2019-06-26T09:40:46.867Z,50.66
2019-06-26T09:43:15.723Z,50.25
2019-06-26T09:45:44.516Z,50.17
2019-06-26T09:48:13.330Z,50.42
2019-06-26T09:50:42.186Z,50.35
2019-06-26T09:53:10.991Z,50.13
2019-06-26T09:55:39.752Z,49.59
2019-06-26T09:58:08.618Z,49.62
2019-06-26T10:00:37.436Z,49.90
2019-06-26T10:03:06.480Z,49.77
2019-06-26T10:05:35.822Z,49.86
2019-06-26T10:08:04.997Z,50.24
2019-06-26T10:10:33.815Z,50.33
2019-06-26T10:13:02.611Z,50.57
2019-06-26T10:15:31.403Z,50.62
2019-06-26T10:18:00.307Z,50.68
2019-06-26T10:20:29.108Z,50.79
2019-06-26T10:22:57.941Z,51.23
2019-06-26T10:25:26.780Z,50.99
2019-06-26T10:27:55.635Z,50.77
2019-06-26T10:30:24.438Z,50.42
2019-06-26T10:32:53.306Z,50.22
2019-06-26T10:35:22.092Z,49.05
2019-06-26T10:37:50.902Z,48.04
2019-06-26T10:40:19.753Z,48.09
2019-06-26T10:42:48.551Z,48.07
2019-06-26T10:45:17.870Z,48.14
2019-06-26T10:47:46.681Z,47.99
2019-06-26T10:50:16.105Z,48.03
2019-06-26T10:52:44.899Z,48.13
2019-06-26T10:55:13.826Z,47.87
2019-06-26T10:57:42.641Z,47.67
2019-06-26T11:00:11.439Z,47.69
2019-06-26T11:02:40.244Z,47.45
2019-06-26T11:05:09.090Z,47.03
2019-06-26T11:07:37.913Z,46.69
2019-06-26T11:10:07.293Z,46.76
2019-06-26T11:12:36.146Z,45.49
2019-06-26T11:15:05.370Z,43.54
2019-06-26T11:17:34.303Z,43.24
2019-06-26T11:20:03.109Z,41.55
2019-06-26T11:22:31.917Z,40.95
2019-06-26T11:25:01.503Z,41.09
2019-06-26T11:27:30.300Z,40.50
2019-06-26T11:29:59.112Z,40.31
2019-06-26T11:32:28.126Z,40.50
2019-06-26T11:34:56.905Z,40.72
2019-06-26T11:37:25.742Z,40.49
2019-06-26T11:39:54.526Z,40.05
2019-06-26T11:42:23.541Z,39.97
2019-06-26T11:44:52.426Z,40.36
2019-06-26T11:47:21.365Z,40.10
2019-06-26T11:49:59.338Z,40.59
2019-06-26T11:52:20.648Z,39.91
2019-06-26T11:55:01.961Z,39.94
2019-06-26T11:57:20.642Z,39.99
2019-06-26T11:59:49.520Z,40.16
2019-06-26T12:02:18.532Z,40.25
2019-06-26T12:04:47.401Z,40.56
2019-06-26T12:07:16.205Z,40.48
2019-06-26T12:09:45.931Z,40.18
2019-06-26T12:12:14.761Z,39.97
2019-06-26T12:14:43.526Z,40.25
2019-06-26T12:17:12.352Z,39.93
2019-06-26T12:19:41.364Z,39.43
2019-06-26T12:22:10.236Z,38.70
2019-06-26T12:24:39.021Z,38.26
2019-06-26T12:27:07.847Z,38.33
2019-06-26T12:29:36.587Z,38.29
2019-06-26T12:32:05.479Z,38.10
2019-06-26T12:34:34.252Z,37.81
2019-06-26T12:37:03.077Z,37.77
2019-06-26T12:39:31.846Z,37.83
2019-06-26T12:42:01.029Z,38.08
2019-06-26T12:44:29.782Z,38.51
2019-06-26T12:46:58.553Z,38.57
2019-06-26T12:49:27.430Z,37.70
2019-06-26T12:51:56.237Z,37.26
2019-06-26T12:54:25.115Z,37.48
2019-06-26T12:56:53.997Z,37.25
2019-06-26T12:59:22.788Z,37.43
2019-06-26T13:01:51.695Z,37.45
2019-06-26T13:04:20.485Z,37.45
2019-06-26T13:06:49.344Z,37.14
2019-06-26T13:09:18.204Z,37.79
2019-06-26T13:11:47.188Z,38.13
2019-06-26T13:14:15.940Z,38.07
2019-06-26T13:16:44.787Z,38.23
2019-06-26T13:19:13.599Z,38.82
2019-06-26T13:21:42.371Z,38.89
2019-06-26T13:24:11.260Z,39.17
2019-06-26T13:26:40.027Z,38.88
2019-06-26T13:29:10.065Z,39.24
2019-06-26T13:31:39.137Z,39.39
2019-06-26T13:34:07.937Z,39.38
2019-06-26T13:36:36.783Z,39.62
2019-06-26T13:39:06.743Z,39.51
2019-06-26T13:41:35.634Z,39.30
2019-06-26T13:44:04.436Z,39.46
2019-06-26T13:46:52.514Z,39.62
2019-06-26T13:49:21.470Z,39.70
2019-06-26T13:51:50.337Z,39.82
2019-06-26T13:54:19.426Z,39.29
2019-06-26T13:56:48.366Z,38.35
2019-06-26T13:59:17.219Z,38.24
2019-06-26T14:01:46.097Z,38.26
2019-06-26T14:04:14.919Z,38.62
2019-06-26T14:06:44.008Z,38.74
2019-06-26T14:09:12.797Z,39.05
2019-06-26T14:11:41.717Z,39.56
2019-06-26T14:14:10.525Z,40.11
2019-06-26T14:16:39.368Z,41.03
2019-06-26T14:19:08.161Z,41.03
2019-06-26T14:21:36.908Z,41.61
2019-06-26T14:24:05.725Z,41.68
2019-06-26T14:26:34.554Z,41.42
2019-06-26T14:29:19.790Z,41.81
2019-06-26T14:31:33.995Z,41.98
2019-06-26T14:34:02.900Z,42.31
2019-06-26T14:36:31.739Z,42.27
2019-06-26T14:39:00.539Z,42.34
2019-06-26T14:41:29.337Z,42.08
2019-06-26T14:43:58.162Z,42.17
2019-06-26T14:46:26.929Z,42.17
2019-06-26T14:48:55.820Z,42.05
2019-06-26T14:51:37.771Z,42.11
2019-06-26T14:53:55.135Z,42.25
2019-06-26T14:56:23.904Z,42.36
2019-06-26T14:58:52.764Z,42.36
2019-06-26T15:01:21.630Z,42.34
2019-06-26T15:03:50.422Z,42.36
2019-06-26T15:06:19.279Z,42.33
2019-06-26T15:08:48.083Z,42.31
2019-06-26T15:11:16.932Z,42.19
2019-06-26T15:13:45.740Z,42.22
2019-06-26T15:16:14.622Z,42.22
2019-06-26T15:19:02.517Z,42.23
2019-06-26T15:21:31.302Z,42.23
2019-06-26T15:24:00.184Z,42.33
2019-06-26T15:26:29.089Z,42.18
2019-06-26T15:28:57.885Z,42.18
2019-06-26T15:31:26.742Z,42.18
2019-06-26T15:33:55.638Z,42.18
2019-06-26T15:36:24.424Z,42.15
2019-06-26T15:38:53.259Z,42.13
2019-06-26T15:41:22.093Z,42.12
2019-06-26T15:43:51.023Z,42.11
2019-06-26T15:46:19.877Z,42.13
2019-06-26T15:48:50.383Z,42.13
2019-06-26T15:51:19.436Z,42.07
2019-06-26T15:53:48.434Z,42.08
2019-06-26T15:56:17.226Z,42.10
2019-06-26T15:58:46.012Z,42.11
2019-06-26T16:01:15.023Z,42.07
2019-06-26T16:03:43.905Z,42.03
2019-06-26T16:06:12.774Z,42.05
2019-06-26T16:08:41.537Z,41.99
2019-06-26T16:11:10.336Z,41.99
2019-06-26T16:13:39.109Z,41.95
2019-06-26T16:16:08.055Z,42.01
2019-06-26T16:18:43.156Z,42.01
2019-06-26T16:21:12.156Z,41.94
2019-06-26T16:23:40.929Z,41.99
2019-06-26T16:26:09.724Z,41.95
2019-06-26T16:28:38.500Z,41.97
2019-06-26T16:31:07.305Z,42.04
2019-06-26T16:33:36.075Z,42.09
2019-06-26T16:36:04.873Z,42.08
2019-06-26T16:38:33.664Z,42.05
2019-06-26T16:41:02.490Z,42.04
2019-06-26T16:43:31.245Z,41.95
2019-06-26T16:46:00.050Z,41.94
2019-06-26T16:48:28.811Z,41.93
2019-06-26T16:50:57.713Z,41.95
2019-06-26T16:53:26.483Z,41.95
2019-06-26T16:55:55.274Z,41.96
2019-06-26T16:58:24.038Z,41.89
2019-06-26T17:00:52.903Z,41.93
2019-06-26T17:03:21.668Z,41.98
2019-06-26T17:05:50.508Z,41.95
2019-06-26T17:08:19.371Z,41.92
2019-06-26T17:10:48.166Z,41.95
2019-06-26T17:13:17.012Z,41.92
2019-06-26T17:15:45.949Z,41.94
2019-06-26T17:18:15.276Z,41.91
2019-06-26T17:20:44.199Z,41.91
2019-06-26T17:23:12.982Z,41.92
2019-06-26T17:25:41.842Z,41.89
2019-06-26T17:28:10.690Z,41.90
2019-06-26T17:30:39.512Z,41.92
2019-06-26T17:33:08.345Z,41.85
2019-06-26T17:35:37.147Z,41.86
2019-06-26T17:38:05.941Z,41.91
2019-06-26T17:40:34.756Z,41.87
2019-06-26T17:43:12.446Z,41.88
2019-06-26T17:45:34.051Z,41.86
2019-06-26T17:48:02.844Z,41.90
2019-06-26T17:50:31.659Z,41.90
2019-06-26T17:53:00.427Z,41.90
2019-06-26T17:55:29.301Z,41.90
2019-06-26T17:57:58.227Z,41.99
2019-06-26T18:00:30.973Z,41.93
2019-06-26T18:02:59.733Z,41.97
2019-06-26T18:05:28.563Z,42.05
2019-06-26T18:07:57.430Z,41.92
2019-06-26T18:10:26.297Z,41.96
2019-06-26T18:12:55.070Z,42.00
2019-06-26T18:15:23.931Z,41.94
2019-06-26T18:17:52.738Z,41.87
2019-06-26T18:20:21.533Z,41.97
2019-06-26T18:23:05.817Z,41.94
2019-06-26T18:25:21.070Z,41.85
2019-06-26T18:27:50.001Z,41.91
2019-06-26T18:30:22.628Z,41.89
2019-06-26T18:32:50.283Z,41.71
2019-06-26T18:35:19.064Z,41.71
2019-06-26T18:37:47.830Z,41.67
2019-06-26T18:40:16.714Z,41.60
2019-06-26T18:42:45.537Z,41.58
2019-06-26T18:45:14.705Z,41.67
2019-06-26T18:47:43.510Z,41.65
2019-06-26T18:50:12.287Z,41.77
2019-06-26T18:52:41.079Z,41.74
2019-06-26T18:55:09.939Z,41.79
2019-06-26T18:57:38.819Z,41.79
2019-06-26T19:00:08.467Z,41.85
2019-06-26T19:02:37.282Z,41.82
2019-06-26T19:05:06.938Z,41.73
2019-06-26T19:07:35.727Z,41.88
2019-06-26T19:10:05.455Z,41.92
2019-06-26T19:12:34.236Z,41.89
2019-06-26T19:15:03.055Z,41.86
2019-06-26T19:17:31.983Z,41.79
2019-06-26T19:20:00.837Z,41.83
2019-06-26T19:22:29.651Z,41.78
2019-06-26T19:24:58.420Z,41.81
2019-06-26T19:27:27.293Z,41.81
2019-06-26T19:29:56.073Z,41.70
2019-06-26T19:32:25.033Z,41.58
2019-06-26T19:34:53.810Z,41.59
2019-06-26T19:37:22.849Z,41.63
2019-06-26T19:39:51.642Z,41.68
2019-06-26T19:42:20.744Z,41.64
2019-06-26T19:44:49.596Z,41.43
2019-06-26T19:47:18.466Z,41.60
2019-06-26T19:49:47.226Z,41.55
2019-06-26T19:52:16.107Z,41.46
2019-06-26T19:54:44.966Z,41.43
2019-06-26T19:57:13.842Z,41.47
2019-06-26T19:59:42.609Z,41.40
2019-06-26T20:02:11.590Z,41.36
2019-06-26T20:04:40.529Z,41.27
2019-06-26T20:07:09.338Z,41.30
2019-06-26T20:09:38.107Z,41.39
2019-06-26T20:12:06.911Z,41.16
2019-06-26T20:14:35.823Z,41.30
2019-06-26T20:17:04.637Z,41.36
2019-06-26T20:19:33.504Z,41.20
2019-06-26T20:22:02.309Z,41.25
2019-06-26T20:24:43.493Z,41.32
2019-06-26T20:27:01.994Z,41.42
2019-06-26T20:29:30.763Z,41.39
2019-06-26T20:31:59.643Z,41.46
2019-06-26T20:34:28.485Z,41.43
2019-06-26T20:36:57.338Z,41.49
2019-06-26T20:39:26.111Z,41.59
2019-06-26T20:41:54.982Z,41.61
2019-06-26T20:44:23.760Z,41.32
2019-06-26T20:46:52.549Z,41.47
2019-06-26T20:49:21.391Z,41.63
2019-06-26T20:51:50.166Z,41.43
2019-06-26T20:54:19.018Z,41.39
2019-06-26T20:56:48.023Z,41.50
2019-06-26T20:59:16.993Z,41.54
2019-06-26T21:01:45.758Z,41.37
2019-06-26T21:04:14.581Z,41.34
2019-06-26T21:06:43.360Z,41.43
2019-06-26T21:09:12.325Z,41.45
2019-06-26T21:11:41.085Z,41.18
2019-06-26T21:14:09.876Z,41.37
2019-06-26T21:16:38.790Z,41.41
2019-06-26T21:19:07.603Z,41.32
2019-06-26T21:21:36.450Z,41.29
2019-06-26T21:24:05.322Z,41.24
2019-06-26T21:26:34.109Z,41.32
2019-06-26T21:29:03.078Z,41.31
2019-06-26T21:31:31.991Z,41.38
2019-06-26T21:34:00.784Z,41.50
2019-06-26T21:36:29.703Z,41.46
2019-06-26T21:38:58.569Z,41.23
2019-06-26T21:41:27.426Z,41.27
2019-06-26T21:43:56.232Z,41.33
2019-06-26T21:46:25.045Z,41.39
2019-06-26T21:48:53.825Z,41.48
2019-06-26T21:51:22.683Z,41.56
2019-06-26T21:53:51.561Z,41.46
2019-06-26T21:56:20.386Z,41.41
2019-06-26T21:58:49.255Z,41.29
2019-06-26T22:01:18.047Z,41.31
2019-06-26T22:03:46.919Z,41.22
2019-06-26T22:06:15.842Z,41.22
2019-06-26T22:08:44.645Z,41.15
2019-06-26T22:11:13.418Z,41.12
2019-06-26T22:13:42.206Z,41.07
2019-06-26T22:16:10.972Z,41.10
2019-06-26T22:18:39.937Z,41.10
2019-06-26T22:21:08.766Z,41.21
2019-06-26T22:23:37.570Z,41.18
2019-06-26T22:26:06.349Z,41.29
2019-06-26T22:28:35.159Z,41.22
2019-06-26T22:31:04.004Z,40.98
2019-06-26T22:33:32.948Z,41.01
2019-06-26T22:36:01.780Z,40.76
2019-06-26T22:38:30.570Z,40.82
2019-06-26T22:40:59.369Z,40.79
2019-06-26T22:43:28.166Z,40.74
2019-06-26T22:45:56.948Z,40.67
2019-06-26T22:48:25.747Z,40.63
2019-06-26T22:50:54.655Z,40.66
2019-06-26T22:53:23.447Z,40.55
2019-06-26T22:56:06.598Z,40.53
2019-06-26T22:58:22.917Z,40.38
2019-06-26T23:00:51.689Z,40.46
2019-06-26T23:03:20.595Z,40.43
2019-06-26T23:05:49.371Z,40.47
2019-06-26T23:08:18.248Z,40.38
2019-06-26T23:10:47.102Z,40.53
2019-06-26T23:13:15.985Z,40.58
2019-06-26T23:15:44.831Z,40.48
2019-06-26T23:18:13.638Z,40.50
2019-06-26T23:20:42.701Z,40.60
2019-06-26T23:23:11.472Z,40.62
2019-06-26T23:25:40.273Z,40.71
2019-06-26T23:28:09.035Z,40.72
2019-06-26T23:30:37.837Z,40.68
2019-06-26T23:33:06.600Z,40.67
2019-06-26T23:35:35.407Z,40.75
2019-06-26T23:38:04.662Z,40.71
2019-06-26T23:40:33.494Z,40.71
2019-06-26T23:43:02.403Z,40.75
2019-06-26T23:45:31.274Z,40.64
2019-06-26T23:48:00.048Z,40.59
2019-06-26T23:50:28.867Z,40.63
2019-06-26T23:52:57.656Z,40.56
2019-06-26T23:55:26.459Z,40.52
2019-06-26T23:57:59.504Z,40.55
